Time;durP1;ratioP1;P1;durP2;ratioP2;P2;SDS_P1;SDS_P2;PMS_P1;PMS_P2;Temp;Humidity;BMP_temperature;BMP_pressure;BME280_temperature;BME280_humidity;BME280_pressure;Samples;Min_cycle;Max_cycle;Signal;HPM_P1;HPM_P2
2024/03/20 00:00:03;;;;;;;1.48;1.25;;;16.50;62.20;;;;;;5054253;28;20649;-64
2024/03/20 00:02:28;;;;;;;2.22;1.92;;;16.50;62.20;;;;;;5053514;28;20171;-65
2024/03/20 00:04:54;;;;;;;1.55;1.45;;;16.50;62.20;;;;;;5054269;28;20221;-64
2024/03/20 00:07:19;;;;;;;1.48;1.38;;;16.50;62.20;;;;;;5053895;28;20588;-64
2024/03/20 00:09:45;;;;;;;1.52;1.35;;;16.50;62.20;;;;;;5053570;28;20270;-64
2024/03/20 00:12:10;;;;;;;2.00;1.40;;;16.50;62.20;;;;;;5053593;28;20257;-64
2024/03/20 00:14:36;;;;;;;2.00;1.40;;;16.50;62.20;;;;;;5054054;28;20175;-63
2024/03/20 00:17:02;;;;;;;1.60;1.50;;;16.50;62.20;;;;;;5053257;28;20637;-64
2024/03/20 00:19:28;;;;;;;2.35;1.70;;;16.40;62.10;;;;;;5053827;28;20183;-64
2024/03/20 00:21:54;;;;;;;1.38;1.27;;;16.50;62.20;;;;;;5054041;28;20178;-64
2024/03/20 00:24:19;;;;;;;1.40;1.30;;;16.40;62.20;;;;;;5052872;28;20203;-64
2024/03/20 00:26:46;;;;;;;1.73;1.50;;;16.40;62.20;;;;;;5052899;28;20175;-64
2024/03/20 00:29:12;;;;;;;2.10;1.67;;;16.40;62.10;;;;;;5053409;28;20200;-64
2024/03/20 00:31:37;;;;;;;1.42;1.33;;;16.40;62.20;;;;;;5053313;28;20540;-64
2024/03/20 00:34:03;;;;;;;1.98;1.35;;;16.40;63.00;;;;;;5053612;28;20186;-64
2024/03/20 00:36:30;;;;;;;1.48;1.38;;;16.40;62.20;;;;;;5053369;28;20262;-65
2024/03/20 00:38:56;;;;;;;1.85;1.75;;;16.40;62.20;;;;;;5052786;28;20179;-64
2024/03/20 00:41:21;;;;;;;1.65;1.40;;;16.40;62.20;;;;;;5053075;28;20272;-65
2024/03/20 00:43:47;;;;;;;2.20;1.17;;;16.40;62.20;;;;;;5053398;28;20207;-64
2024/03/20 00:46:12;;;;;;;1.42;1.33;;;16.40;62.20;;;;;;5052644;28;20233;-64
2024/03/20 00:48:38;;;;;;;1.98;1.33;;;16.40;62.20;;;;;;5053644;28;20228;-63
2024/03/20 00:51:04;;;;;;;2.38;1.67;;;16.40;62.20;;;;;;5053271;28;20197;-63
2024/03/20 00:53:29;;;;;;;2.75;1.33;;;16.40;62.20;;;;;;5052416;28;20302;-64
2024/03/20 00:55:55;;;;;;;1.98;1.30;;;16.40;62.20;;;;;;5053284;28;20205;-65
2024/03/20 00:58:20;;;;;;;1.40;1.30;;;16.40;62.20;;;;;;5052931;28;20198;-64
2024/03/20 01:00:46;;;;;;;1.40;1.30;;;16.40;62.20;;;;;;5052750;28;20611;-64
2024/03/20 01:03:12;;;;;;;1.88;1.30;;;16.50;62.20;;;;;;5052850;28;20564;-64
2024/03/20 01:05:38;;;;;;;1.77;1.67;;;16.40;62.20;;;;;;5052742;28;20186;-65
2024/03/20 01:08:04;;;;;;;1.58;1.38;;;16.40;62.30;;;;;;5052974;28;20179;-64
2024/03/20 01:10:29;;;;;;;1.48;1.35;;;16.40;62.20;;;;;;5052632;28;20175;-64
2024/03/20 01:12:55;;;;;;;1.45;1.30;;;16.40;62.20;;;;;;5052160;28;20181;-63
2024/03/20 01:15:21;;;;;;;1.60;1.50;;;16.40;62.20;;;;;;5052890;28;20175;-63
2024/03/20 01:17:46;;;;;;;1.83;1.50;;;16.40;62.30;;;;;;5053098;28;20194;-64
2024/03/20 01:20:12;;;;;;;1.30;1.20;;;16.40;62.30;;;;;;5051977;28;20671;-64
2024/03/20 01:22:38;;;;;;;1.95;1.30;;;16.40;62.30;;;;;;5052883;28;20225;-64
2024/03/20 01:25:04;;;;;;;1.40;1.30;;;16.40;62.20;;;;;;5052428;28;20260;-63
2024/03/20 01:27:29;;;;;;;1.92;1.30;;;16.40;62.30;;;;;;5050518;28;20232;-63
2024/03/20 01:29:55;;;;;;;1.20;1.10;;;16.30;62.20;;;;;;5052787;28;20179;-64
2024/03/20 01:32:20;;;;;;;1.50;1.38;;;16.40;62.20;;;;;;5052348;28;20553;-64
2024/03/20 01:34:46;;;;;;;1.15;1.00;;;16.40;62.20;;;;;;5051981;28;20175;-64
2024/03/20 01:37:12;;;;;;;1.95;1.30;;;16.30;62.30;;;;;;5051946;28;20259;-64
2024/03/20 01:39:37;;;;;;;1.42;1.33;;;16.30;62.20;;;;;;5052359;28;20171;-65
2024/03/20 01:42:03;;;;;;;1.40;1.30;;;16.30;62.20;;;;;;5051553;28;20183;-64
2024/03/20 01:44:28;;;;;;;1.52;1.33;;;16.30;62.30;;;;;;5052192;28;20568;-64
2024/03/20 01:46:54;;;;;;;1.65;1.42;;;16.30;62.20;;;;;;5052546;28;20552;-66
2024/03/20 01:49:19;;;;;;;1.83;1.30;;;16.30;62.20;;;;;;5051270;28;20178;-63
2024/03/20 01:51:45;;;;;;;1.50;1.40;;;16.30;62.20;;;;;;5052235;28;20179;-64
2024/03/20 01:54:11;;;;;;;1.40;1.30;;;16.30;62.30;;;;;;5050605;28;20183;-65
2024/03/20 01:56:36;;;;;;;1.92;1.30;;;16.30;62.20;;;;;;5051470;28;20266;-65
2024/03/20 01:59:02;;;;;;;1.90;1.80;;;16.30;62.20;;;;;;5051149;28;20254;-65
2024/03/20 02:01:27;;;;;;;2.58;1.35;;;16.30;62.30;;;;;;5051851;28;20185;-64
2024/03/20 02:03:54;;;;;;;1.60;1.40;;;16.30;62.20;;;;;;5051404;28;20803;-64
2024/03/20 02:06:24;;;;;;;1.63;1.33;;;16.30;62.20;;;;;;5051737;28;20172;-65
2024/03/20 02:08:50;;;;;;;1.75;1.40;;;16.30;62.30;;;;;;5051970;28;20186;-64
2024/03/20 02:11:16;;;;;;;1.30;1.20;;;16.30;62.20;;;;;;5050911;28;20190;-64
2024/03/20 02:13:45;;;;;;;1.95;1.50;;;16.30;62.20;;;;;;5051905;28;20171;-64
2024/03/20 02:16:11;;;;;;;1.73;1.42;;;16.30;62.30;;;;;;5050634;28;20694;-64
2024/03/20 02:18:37;;;;;;;1.63;1.30;;;16.30;62.30;;;;;;5052048;28;20269;-64
2024/03/20 02:21:06;;;;;;;1.70;1.33;;;16.30;62.30;;;;;;5051776;28;20258;-64
2024/03/20 02:23:32;;;;;;;1.95;1.48;;;16.30;62.30;;;;;;5050715;28;20207;-64
2024/03/20 02:25:57;;;;;;;2.05;1.45;;;16.30;62.30;;;;;;5051931;28;20171;-64
2024/03/20 02:28:23;;;;;;;1.50;1.40;;;16.30;62.30;;;;;;5051689;28;20189;-64
2024/03/20 02:30:49;;;;;;;2.80;1.33;;;16.20;62.20;;;;;;5051110;28;20229;-64
2024/03/20 02:33:14;;;;;;;1.70;1.40;;;16.30;62.30;;;;;;5051482;28;20175;-65
2024/03/20 02:35:40;;;;;;;1.52;1.30;;;16.20;62.20;;;;;;5051824;28;20705;-65
2024/03/20 02:38:06;;;;;;;2.63;1.73;;;16.30;62.30;;;;;;5050873;28;20179;-65
2024/03/20 02:40:31;;;;;;;1.67;1.40;;;16.30;62.30;;;;;;5051123;28;20309;-65
2024/03/20 02:42:57;;;;;;;1.13;1.10;;;16.20;62.20;;;;;;5051609;28;20263;-65
2024/03/20 02:45:23;;;;;;;2.13;1.35;;;16.20;62.20;;;;;;5050371;28;20237;-65
2024/03/20 02:47:48;;;;;;;1.50;1.40;;;16.20;62.20;;;;;;5051559;28;20171;-64
2024/03/20 02:50:14;;;;;;;1.50;1.33;;;16.20;62.20;;;;;;5053473;28;20205;-65
2024/03/20 02:52:40;;;;;;;1.75;1.40;;;16.20;62.20;;;;;;5054843;28;20171;-65
2024/03/20 02:55:06;;;;;;;1.58;1.45;;;16.20;62.30;;;;;;5055710;28;20179;-65
2024/03/20 02:57:31;;;;;;;1.45;1.10;;;16.20;62.20;;;;;;5055449;28;20183;-65
2024/03/20 02:59:57;;;;;;;1.38;1.10;;;16.20;62.20;;;;;;5054934;28;20178;-65
2024/03/20 03:02:22;;;;;;;1.30;1.20;;;16.20;62.30;;;;;;5055336;28;20225;-65
2024/03/20 03:04:48;;;;;;;1.63;1.27;;;16.20;62.30;;;;;;5055394;28;20210;-64
2024/03/20 03:07:14;;;;;;;1.30;1.10;;;16.20;62.20;;;;;;5054235;28;20236;-65
2024/03/20 03:09:45;;;;;;;1.38;1.27;;;16.20;62.20;;;;;;5055311;28;20175;-64
2024/03/20 03:12:10;;;;;;;1.23;1.20;;;16.20;62.30;;;;;;5055078;28;20179;-64
2024/03/20 03:14:36;;;;;;;1.77;1.20;;;16.20;62.30;;;;;;5054715;28;20175;-64
2024/03/20 03:17:01;;;;;;;1.48;1.33;;;16.20;62.20;;;;;;5055045;28;20536;-64
2024/03/20 03:19:27;;;;;;;1.05;1.05;;;16.20;62.20;;;;;;5054051;28;20178;-64
2024/03/20 03:21:53;;;;;;;1.13;0.90;;;16.20;62.20;;;;;;5054926;28;20190;-64
2024/03/20 03:24:18;;;;;;;1.90;1.30;;;16.20;62.20;;;;;;5054670;28;20211;-64
2024/03/20 03:26:44;;;;;;;1.02;1.00;;;16.20;62.20;;;;;;5054524;28;20186;-64
2024/03/20 03:29:09;;;;;;;1.50;1.35;;;16.10;62.20;;;;;;5054490;28;20186;-64
2024/03/20 03:31:36;;;;;;;1.65;1.17;;;16.10;62.20;;;;;;5054976;28;20178;-64
2024/03/20 03:34:02;;;;;;;1.40;1.30;;;16.10;62.20;;;;;;5054152;28;20175;-65
2024/03/20 03:36:28;;;;;;;1.23;1.15;;;16.10;62.20;;;;;;5054475;28;20224;-65
2024/03/20 03:38:54;;;;;;;1.08;1.08;;;16.20;62.30;;;;;;5054964;28;20258;-65
2024/03/20 03:41:19;;;;;;;1.50;1.00;;;16.10;62.20;;;;;;5053739;28;20215;-65
2024/03/20 03:43:46;;;;;;;1.10;1.10;;;16.20;62.40;;;;;;5054869;28;20205;-65
2024/03/20 03:46:11;;;;;;;1.05;1.05;;;16.10;62.20;;;;;;5054443;28;20179;-65
2024/03/20 03:48:37;;;;;;;2.08;1.50;;;16.10;62.20;;;;;;5054194;28;20317;-64
2024/03/20 03:51:03;;;;;;;1.65;1.10;;;16.10;62.20;;;;;;5054494;28;20265;-65
2024/03/20 03:53:29;;;;;;;1.38;1.20;;;16.10;62.20;;;;;;5054280;28;20536;-65
2024/03/20 03:55:55;;;;;;;1.20;1.10;;;16.10;62.30;;;;;;5053801;28;20193;-65
2024/03/20 03:58:20;;;;;;;1.35;1.25;;;16.10;62.20;;;;;;5054491;28;20261;-65
2024/03/20 04:00:46;;;;;;;1.10;1.00;;;16.10;62.30;;;;;;5054608;28;20175;-65
2024/03/20 04:03:11;;;;;;;1.13;1.02;;;16.10;62.40;;;;;;5053250;28;20218;-66
2024/03/20 04:05:37;;;;;;;1.10;1.05;;;16.10;62.30;;;;;;5054537;28;20233;-67
2024/03/20 04:08:03;;;;;;;1.00;0.90;;;16.10;62.40;;;;;;5054179;28;20228;-65
2024/03/20 04:10:29;;;;;;;1.65;1.00;;;16.10;62.30;;;;;;5053387;28;20186;-64
2024/03/20 04:12:54;;;;;;;1.40;1.30;;;16.10;62.40;;;;;;5054142;28;20191;-64
2024/03/20 04:15:23;;;;;;;1.08;0.90;;;16.10;62.40;;;;;;5053821;28;20214;-64
2024/03/20 04:17:48;;;;;;;1.90;1.38;;;16.30;62.50;;;;;;5053541;28;20218;-65
2024/03/20 04:20:14;;;;;;;1.35;1.20;;;16.10;62.40;;;;;;5053580;28;20645;-65
2024/03/20 04:22:41;;;;;;;1.73;1.27;;;16.10;62.40;;;;;;5053619;28;20258;-64
2024/03/20 04:25:07;;;;;;;1.30;1.00;;;16.10;62.40;;;;;;5053976;28;20297;-63
2024/03/20 04:27:33;;;;;;;0.98;0.95;;;16.10;62.40;;;;;;5053900;28;20217;-64
2024/03/20 04:29:59;;;;;;;0.70;0.70;;;16.10;62.40;;;;;;5053040;28;20660;-64
2024/03/20 04:32:25;;;;;;;1.25;1.10;;;16.10;62.40;;;;;;5053493;28;20266;-64
2024/03/20 04:34:51;;;;;;;1.08;0.98;;;16.10;62.40;;;;;;5053535;28;20258;-64
2024/03/20 04:37:16;;;;;;;1.20;1.10;;;16.10;62.40;;;;;;5052954;28;20266;-64
2024/03/20 04:39:42;;;;;;;1.25;1.10;;;16.10;62.40;;;;;;5053585;28;20258;-64
2024/03/20 04:42:08;;;;;;;1.40;1.02;;;16.10;62.40;;;;;;5053525;28;20250;-65
2024/03/20 04:44:33;;;;;;;1.38;1.13;;;16.10;62.40;;;;;;5052984;28;20261;-64
2024/03/20 04:46:59;;;;;;;2.00;1.10;;;16.10;62.40;;;;;;5053499;28;20649;-63
2024/03/20 04:49:25;;;;;;;1.60;1.15;;;16.00;62.30;;;;;;5053145;28;20642;-63
2024/03/20 04:51:51;;;;;;;1.15;0.90;;;16.10;62.40;;;;;;5052591;28;20548;-64
2024/03/20 04:54:16;;;;;;;1.10;0.80;;;16.10;62.40;;;;;;5053141;28;20179;-63
2024/03/20 04:56:42;;;;;;;1.23;1.05;;;16.10;62.40;;;;;;5053430;28;20163;-64
2024/03/20 04:59:07;;;;;;;1.40;1.30;;;16.00;62.30;;;;;;5052481;28;20262;-64
2024/03/20 05:01:33;;;;;;;1.50;1.25;;;16.00;62.30;;;;;;5053148;28;20217;-64
2024/03/20 05:03:59;;;;;;;1.15;1.05;;;16.00;62.40;;;;;;5053024;28;20215;-64
2024/03/20 05:06:25;;;;;;;1.23;1.13;;;16.10;62.40;;;;;;5052321;28;20175;-64
2024/03/20 05:08:50;;;;;;;2.72;1.85;;;16.00;62.40;;;;;;5053265;28;20587;-63
2024/03/20 05:11:16;;;;;;;1.55;1.20;;;16.00;62.40;;;;;;5052804;28;20334;-64
2024/03/20 05:13:41;;;;;;;1.25;1.10;;;16.00;62.30;;;;;;5051827;28;20232;-63
2024/03/20 05:16:10;;;;;;;1.00;0.88;;;16.00;62.40;;;;;;5052772;28;20178;-64
2024/03/20 05:18:35;;;;;;;0.88;0.88;;;15.90;62.30;;;;;;5052836;28;20195;-62
2024/03/20 05:21:01;;;;;;;0.98;0.98;;;16.00;62.40;;;;;;5052276;28;20203;-66
2024/03/20 05:23:27;;;;;;;1.20;1.08;;;16.00;63.20;;;;;;5052450;28;20684;-63
2024/03/20 05:25:56;;;;;;;1.30;1.20;;;16.00;62.30;;;;;;5051882;28;20224;-63
2024/03/20 05:28:21;;;;;;;1.02;1.00;;;16.00;62.40;;;;;;5052500;28;20175;-63
2024/03/20 05:30:50;;;;;;;1.10;0.90;;;16.00;62.30;;;;;;5052724;28;20688;-63
2024/03/20 05:33:17;;;;;;;1.35;1.25;;;16.00;62.40;;;;;;5051608;28;20264;-63
2024/03/20 05:35:43;;;;;;;1.08;1.02;;;16.00;62.40;;;;;;5052575;28;20555;-64
2024/03/20 05:38:09;;;;;;;1.20;1.10;;;16.00;62.30;;;;;;5052257;28;20179;-65
2024/03/20 05:40:35;;;;;;;0.88;0.88;;;16.00;62.40;;;;;;5051564;28;20308;-64
2024/03/20 05:43:01;;;;;;;1.85;1.05;;;16.00;62.30;;;;;;5052363;28;20175;-63
2024/03/20 05:45:27;;;;;;;0.80;0.80;;;16.00;62.30;;;;;;5052181;28;20190;-64
2024/03/20 05:47:52;;;;;;;0.82;0.82;;;15.90;62.30;;;;;;5051522;28;20164;-63
2024/03/20 05:50:18;;;;;;;1.17;1.00;;;16.00;62.40;;;;;;5052203;28;20211;-64
2024/03/20 05:52:44;;;;;;;1.20;1.10;;;15.90;62.30;;;;;;5052543;28;20190;-66
2024/03/20 05:55:10;;;;;;;1.02;0.95;;;15.90;62.30;;;;;;5051112;28;20182;-65
2024/03/20 05:57:35;;;;;;;1.00;0.90;;;15.90;62.30;;;;;;5052082;28;20175;-64
2024/03/20 06:00:01;;;;;;;1.35;1.25;;;16.00;62.30;;;;;;5052054;28;20171;-64
2024/03/20 06:02:27;;;;;;;0.88;0.88;;;15.90;62.30;;;;;;5051078;28;20217;-64
2024/03/20 06:04:52;;;;;;;1.40;1.02;;;16.00;62.30;;;;;;5052158;28;20229;-64
2024/03/20 06:07:18;;;;;;;0.80;0.80;;;16.00;62.30;;;;;;5051962;28;20250;-64
2024/03/20 06:09:43;;;;;;;0.80;0.77;;;15.90;62.30;;;;;;5051446;28;20214;-64
2024/03/20 06:12:09;;;;;;;1.67;1.00;;;15.90;62.20;;;;;;5051567;28;20171;-64
2024/03/20 06:14:35;;;;;;;2.28;1.20;;;15.90;62.20;;;;;;5051957;28;20183;-65
2024/03/20 06:17:01;;;;;;;1.02;0.93;;;15.90;62.20;;;;;;5050989;28;20175;-65
2024/03/20 06:19:27;;;;;;;1.13;0.90;;;15.90;62.20;;;;;;5051664;28;20258;-65
2024/03/20 06:21:52;;;;;;;0.80;0.80;;;15.90;62.20;;;;;;5051903;28;20538;-63
2024/03/20 06:24:18;;;;;;;0.75;0.75;;;15.90;62.20;;;;;;5049908;28;20984;-64
2024/03/20 06:26:43;;;;;;;1.80;0.90;;;15.90;62.20;;;;;;5051913;28;20714;-64
2024/03/20 06:29:09;;;;;;;1.13;1.00;;;15.90;62.20;;;;;;5051121;28;20669;-65
2024/03/20 06:31:35;;;;;;;1.38;1.08;;;15.90;62.20;;;;;;5051363;28;20642;-64
2024/03/20 06:34:01;;;;;;;0.95;0.90;;;15.90;62.20;;;;;;5051880;28;20183;-65
2024/03/20 06:36:27;;;;;;;1.30;1.00;;;15.90;62.20;;;;;;5050711;28;20266;-65
2024/03/20 06:38:53;;;;;;;1.25;1.00;;;16.00;62.30;;;;;;5051759;28;20183;-64
2024/03/20 06:41:18;;;;;;;0.95;0.90;;;16.00;62.20;;;;;;5051136;28;20222;-65
2024/03/20 06:43:50;;;;;;;1.25;1.10;;;16.00;62.20;;;;;;5050777;28;20234;-65
2024/03/20 06:46:19;;;;;;;1.55;0.75;;;16.00;63.10;;;;;;5051202;28;20194;-65
2024/03/20 06:48:46;;;;;;;1.17;0.90;;;16.00;62.20;;;;;;5051680;28;20295;-64
2024/03/20 06:51:12;;;;;;;0.88;0.88;;;16.00;62.20;;;;;;5050643;28;20182;-64
2024/03/20 06:53:38;;;;;;;1.00;0.90;;;15.90;62.00;;;;;;5051588;28;20175;-65
2024/03/20 06:56:05;;;;;;;0.80;0.80;;;16.00;62.00;;;;;;5051472;28;20179;-65
2024/03/20 06:58:31;;;;;;;1.02;0.85;;;16.10;62.00;;;;;;5050507;28;20186;-65
2024/03/20 07:00:56;;;;;;;1.23;0.90;;;16.20;62.00;;;;;;5051266;28;20171;-64
2024/03/20 07:03:22;;;;;;;1.40;1.02;;;16.30;62.00;;;;;;5050944;28;20211;-65
2024/03/20 07:05:48;;;;;;;0.85;0.85;;;16.40;61.90;;;;;;5050610;28;20178;-65
2024/03/20 07:08:14;;;;;;;0.85;0.80;;;16.40;62.00;;;;;;5051062;28;20179;-64
2024/03/20 07:10:39;;;;;;;1.10;1.00;;;16.60;61.60;;;;;;5051403;28;20168;-63
2024/03/20 07:13:05;;;;;;;0.80;0.80;;;16.70;61.60;;;;;;5050440;28;20266;-64
2024/03/20 07:15:32;;;;;;;0.93;0.82;;;16.80;61.20;;;;;;5051286;28;20186;-64
2024/03/20 07:17:58;;;;;;;0.60;0.60;;;16.90;61.10;;;;;;5051134;28;20645;-64
2024/03/20 07:20:24;;;;;;;1.15;0.70;;;17.00;60.80;;;;;;5050220;28;20179;-64
2024/03/20 07:22:50;;;;;;;1.88;0.93;;;17.10;60.60;;;;;;5051287;28;20606;-65
2024/03/20 07:25:16;;;;;;;1.25;1.15;;;17.20;60.40;;;;;;5050931;28;20238;-64
2024/03/20 07:27:41;;;;;;;1.05;0.73;;;17.30;60.30;;;;;;5050464;28;20524;-63
2024/03/20 07:30:08;;;;;;;1.30;1.13;;;17.30;60.10;;;;;;5051026;28;20175;-64
2024/03/20 07:32:35;;;;;;;0.80;0.80;;;17.40;60.00;;;;;;5050676;28;20214;-64
2024/03/20 07:35:01;;;;;;;0.60;0.60;;;17.40;60.00;;;;;;5051161;28;20650;-65
2024/03/20 07:37:27;;;;;;;0.82;0.70;;;17.40;59.90;;;;;;5054618;28;20266;-65
2024/03/20 07:39:52;;;;;;;1.05;0.73;;;17.40;59.90;;;;;;5053717;28;20229;-65
2024/03/20 07:42:18;;;;;;;0.60;0.60;;;17.40;59.90;;;;;;5054196;28;20176;-65
2024/03/20 07:44:44;;;;;;;1.42;0.85;;;17.50;59.90;;;;;;5054806;28;20210;-64
2024/03/20 07:47:09;;;;;;;0.77;0.70;;;17.50;59.80;;;;;;5053491;28;20608;-65
2024/03/20 07:49:35;;;;;;;0.68;0.68;;;17.50;59.80;;;;;;5054574;28;20183;-64
2024/03/20 07:52:00;;;;;;;0.70;0.70;;;17.50;59.70;;;;;;5053159;28;20170;-64
2024/03/20 07:54:27;;;;;;;1.90;0.85;;;17.60;59.70;;;;;;5053543;28;20211;-65
2024/03/20 07:56:53;;;;;;;0.85;0.85;;;17.60;59.70;;;;;;5054237;28;20171;-64
2024/03/20 07:59:19;;;;;;;0.70;0.70;;;17.70;59.70;;;;;;5054296;28;20175;-64
2024/03/20 08:01:44;;;;;;;1.27;1.17;;;17.70;59.80;;;;;;5053672;28;20182;-65
2024/03/20 08:04:10;;;;;;;1.10;1.05;;;17.60;59.60;;;;;;5053947;28;20242;-64
2024/03/20 08:06:36;;;;;;;1.02;0.73;;;17.70;59.70;;;;;;5054254;28;20186;-65
2024/03/20 08:09:01;;;;;;;0.70;0.70;;;17.70;59.70;;;;;;5053489;28;20175;-64
2024/03/20 08:11:27;;;;;;;0.80;0.80;;;17.70;59.60;;;;;;5053783;28;20178;-64
2024/03/20 08:13:52;;;;;;;0.70;0.70;;;17.60;59.60;;;;;;5054253;28;20171;-64
2024/03/20 08:16:18;;;;;;;1.02;0.73;;;17.60;59.70;;;;;;5053302;28;20167;-63
2024/03/20 08:18:44;;;;;;;0.80;0.80;;;17.60;59.80;;;;;;5054154;28;20175;-63
2024/03/20 08:21:09;;;;;;;1.95;1.20;;;17.60;59.90;;;;;;5053705;28;20172;-64
2024/03/20 08:23:36;;;;;;;1.23;1.00;;;17.50;60.00;;;;;;5053172;28;20974;-64
2024/03/20 08:26:02;;;;;;;1.08;0.93;;;17.40;59.90;;;;;;5053735;28;20591;-63
2024/03/20 08:28:27;;;;;;;0.98;0.88;;;17.50;60.10;;;;;;5053443;28;20241;-63
2024/03/20 08:30:53;;;;;;;0.98;0.90;;;17.40;60.10;;;;;;5053196;28;20179;-63
2024/03/20 08:33:19;;;;;;;1.20;1.10;;;17.40;60.20;;;;;;5053630;28;20167;-63
2024/03/20 08:35:59;;;;;;;0.80;0.80;;;17.40;60.30;;;;;;5053516;28;20207;-64
2024/03/20 08:38:26;;;;;;;1.25;0.90;;;17.40;60.40;;;;;;5053470;28;20171;-64
2024/03/20 08:40:51;;;;;;;1.13;1.00;;;17.40;60.50;;;;;;5053243;28;20283;-63
2024/03/20 08:43:18;;;;;;;1.63;1.10;;;17.40;60.50;;;;;;5052704;28;20167;-63
2024/03/20 08:45:45;;;;;;;1.60;1.00;;;17.30;60.50;;;;;;5053693;28;20175;-64
2024/03/20 08:48:10;;;;;;;1.30;0.88;;;17.30;60.50;;;;;;5052153;28;20291;-63
2024/03/20 08:50:43;;;;;;;0.85;0.85;;;17.30;60.60;;;;;;5052843;28;20309;-63
2024/03/20 08:53:11;;;;;;;1.45;0.93;;;17.40;60.70;;;;;;5053102;28;20182;-63
2024/03/20 08:55:36;;;;;;;1.05;0.95;;;17.30;60.80;;;;;;5053606;28;20258;-63
2024/03/20 08:58:02;;;;;;;1.13;1.00;;;17.30;60.80;;;;;;5052787;28;20325;-64
2024/03/20 09:00:27;;;;;;;1.20;1.10;;;17.30;60.80;;;;;;5052912;28;20175;-64
2024/03/20 09:02:53;;;;;;;1.63;1.20;;;17.40;61.00;;;;;;5053131;28;20171;-63
2024/03/20 09:05:18;;;;;;;1.45;0.95;;;17.30;60.90;;;;;;5052076;28;20297;-63
2024/03/20 09:07:44;;;;;;;1.20;1.10;;;17.30;61.00;;;;;;5053139;28;20267;-64
2024/03/20 09:10:10;;;;;;;1.20;1.10;;;17.30;61.00;;;;;;5052921;28;20233;-63
2024/03/20 09:12:36;;;;;;;1.50;1.13;;;17.30;61.10;;;;;;5052299;28;20187;-63
2024/03/20 09:15:01;;;;;;;1.45;0.93;;;17.30;61.00;;;;;;5052859;28;20179;-63
2024/03/20 09:17:27;;;;;;;1.70;1.20;;;17.40;60.90;;;;;;5052820;28;20293;-63
2024/03/20 09:19:54;;;;;;;1.00;1.00;;;17.40;60.90;;;;;;5052115;28;20704;-63
2024/03/20 09:22:20;;;;;;;2.33;1.20;;;17.40;60.80;;;;;;5052554;28;20183;-63
2024/03/20 09:24:45;;;;;;;0.98;0.98;;;17.40;61.00;;;;;;5052690;28;20217;-62
2024/03/20 09:27:11;;;;;;;1.17;1.05;;;17.40;61.00;;;;;;5051906;28;20175;-63
2024/03/20 09:29:36;;;;;;;1.40;1.30;;;17.40;61.10;;;;;;5052944;28;20174;-63
2024/03/20 09:32:04;;;;;;;1.10;1.00;;;17.40;61.00;;;;;;5052134;28;20167;-63
2024/03/20 09:34:29;;;;;;;1.75;1.27;;;17.40;61.00;;;;;;5052337;28;20171;-64
2024/03/20 09:36:56;;;;;;;1.15;1.02;;;17.40;61.00;;;;;;5052442;28;20178;-64
2024/03/20 09:39:21;;;;;;;1.30;1.17;;;17.40;61.00;;;;;;5051509;28;20948;-64
2024/03/20 09:41:47;;;;;;;1.73;1.10;;;17.50;61.00;;;;;;5052314;28;20218;-64
2024/03/20 09:44:13;;;;;;;1.08;0.98;;;17.40;61.00;;;;;;5052010;28;20207;-64
2024/03/20 09:46:38;;;;;;;1.33;1.02;;;17.50;61.10;;;;;;5050482;28;20206;-64
2024/03/20 09:49:03;;;;;;;1.60;1.02;;;17.50;61.10;;;;;;5052315;28;20186;-64
2024/03/20 09:51:32;;;;;;;1.65;1.23;;;17.50;61.10;;;;;;5050814;28;20174;-63
2024/03/20 09:53:58;;;;;;;1.05;1.00;;;17.50;61.00;;;;;;5050630;28;20182;-64
2024/03/20 09:56:25;;;;;;;1.52;1.20;;;17.50;61.00;;;;;;5052111;28;20270;-64
2024/03/20 09:58:52;;;;;;;1.45;1.20;;;17.60;61.00;;;;;;5050974;28;20183;-64
2024/03/20 10:01:20;;;;;;;1.58;0.98;;;17.60;61.00;;;;;;5051223;28;20530;-64
2024/03/20 10:03:47;;;;;;;2.10;1.30;;;17.60;61.00;;;;;;5051990;28;20587;-64
2024/03/20 10:06:12;;;;;;;1.58;1.20;;;17.60;61.00;;;;;;5050617;28;20572;-64
2024/03/20 10:08:40;;;;;;;1.42;0.88;;;17.60;61.00;;;;;;5051354;28;20300;-64
2024/03/20 10:11:07;;;;;;;1.10;1.00;;;17.60;61.00;;;;;;5052132;28;20537;-64
2024/03/20 10:13:33;;;;;;;1.40;0.95;;;17.60;61.10;;;;;;5052013;28;20182;-64
2024/03/20 10:16:08;;;;;;;1.67;1.42;;;17.50;61.00;;;;;;5051260;28;20193;-63
2024/03/20 10:18:34;;;;;;;1.23;0.90;;;17.60;61.10;;;;;;5052006;28;20251;-64
2024/03/20 10:21:01;;;;;;;1.60;1.50;;;17.70;61.10;;;;;;5051770;28;20651;-64
2024/03/20 10:23:27;;;;;;;1.50;1.40;;;17.70;61.10;;;;;;5050962;28;20195;-64
2024/03/20 10:25:52;;;;;;;1.45;1.27;;;17.70;61.10;;;;;;5051671;28;20224;-64
2024/03/20 10:28:20;;;;;;;1.88;1.70;;;17.70;61.10;;;;;;5051056;28;20167;-64
2024/03/20 10:30:49;;;;;;;1.50;1.40;;;17.60;61.00;;;;;;5051707;28;20206;-63
2024/03/20 10:33:17;;;;;;;1.25;1.15;;;17.70;61.10;;;;;;5051334;28;20178;-64
2024/03/20 10:35:43;;;;;;;1.60;1.10;;;17.70;61.20;;;;;;5051046;28;20178;-65
2024/03/20 10:38:08;;;;;;;1.75;1.33;;;17.70;61.10;;;;;;5051530;28;20186;-65
2024/03/20 10:40:34;;;;;;;2.40;1.13;;;17.70;61.20;;;;;;5051615;28;20218;-65
2024/03/20 10:42:59;;;;;;;1.27;1.17;;;17.70;61.20;;;;;;5049733;28;20975;-64
2024/03/20 10:45:25;;;;;;;1.63;1.25;;;17.70;61.20;;;;;;5050138;28;20222;-64
2024/03/20 10:47:50;;;;;;;2.15;1.15;;;17.70;61.20;;;;;;5051527;28;20270;-64
2024/03/20 10:50:18;;;;;;;1.27;1.17;;;17.70;61.20;;;;;;5049442;28;20194;-64
2024/03/20 10:52:47;;;;;;;1.75;1.38;;;17.80;61.20;;;;;;5051801;28;20182;-63
2024/03/20 10:55:15;;;;;;;0.98;0.98;;;17.70;61.20;;;;;;5050328;28;20171;-65
2024/03/20 10:57:41;;;;;;;1.23;1.00;;;17.80;61.20;;;;;;5050529;28;20183;-64
2024/03/20 11:00:17;;;;;;;1.10;1.00;;;17.80;61.20;;;;;;5051590;28;20690;-64
2024/03/20 11:02:46;;;;;;;1.83;1.20;;;17.80;61.20;;;;;;5050868;28;20221;-65
2024/03/20 11:05:33;;;;;;;1.55;1.20;;;17.80;62.00;;;;;;5050466;28;20229;-65
2024/03/20 11:07:59;;;;;;;1.83;1.50;;;17.90;61.20;;;;;;5051672;28;20550;-64
2024/03/20 11:10:27;;;;;;;1.38;1.30;;;17.80;61.10;;;;;;5052210;28;20657;-64
2024/03/20 11:12:53;;;;;;;1.30;1.20;;;17.90;61.10;;;;;;5053936;28;20248;-64
2024/03/20 11:15:19;;;;;;;1.50;1.20;;;17.90;61.10;;;;;;5055057;28;20183;-64
2024/03/20 11:17:49;;;;;;;1.35;1.25;;;17.90;61.10;;;;;;5054496;28;20263;-64
2024/03/20 11:20:35;;;;;;;1.00;1.00;;;17.90;61.10;;;;;;5054930;28;20198;-64
2024/03/20 11:23:05;;;;;;;1.38;1.27;;;17.90;61.10;;;;;;5044321;28;20266;-64
2024/03/20 11:25:32;;;;;;;1.17;1.08;;;18.00;61.10;;;;;;5054197;28;20211;-63
2024/03/20 11:27:58;;;;;;;1.60;1.08;;;18.00;61.10;;;;;;5055101;28;20175;-64
2024/03/20 11:30:23;;;;;;;1.13;1.00;;;18.00;61.10;;;;;;5053604;28;20171;-64
2024/03/20 11:32:49;;;;;;;0.95;0.95;;;18.00;61.00;;;;;;5054442;28;20254;-64
2024/03/20 11:35:15;;;;;;;0.90;0.90;;;18.00;61.00;;;;;;5054605;28;20270;-65
2024/03/20 11:37:41;;;;;;;1.23;1.13;;;18.00;61.00;;;;;;5054879;28;20202;-65
2024/03/20 11:40:12;;;;;;;1.77;0.93;;;18.00;61.00;;;;;;5052845;28;20233;-65
2024/03/20 11:42:38;;;;;;;1.25;1.10;;;18.00;61.10;;;;;;5053508;28;20660;-65
2024/03/20 11:45:06;;;;;;;2.08;1.30;;;18.00;61.10;;;;;;5054664;28;20210;-64
2024/03/20 11:47:31;;;;;;;1.25;1.10;;;18.00;61.10;;;;;;5052564;28;20167;-64
2024/03/20 11:49:57;;;;;;;0.90;0.90;;;18.00;61.10;;;;;;5053387;28;20537;-64
2024/03/20 11:52:23;;;;;;;1.00;0.80;;;18.00;61.20;;;;;;5054305;28;20175;-65
2024/03/20 11:54:48;;;;;;;1.00;0.90;;;18.00;61.10;;;;;;5052671;28;20194;-64
2024/03/20 11:57:15;;;;;;;1.25;0.85;;;18.00;61.10;;;;;;5054355;28;20258;-65
2024/03/20 11:59:47;;;;;;;1.20;1.10;;;18.00;61.10;;;;;;5054615;28;20171;-64
2024/03/20 12:02:14;;;;;;;1.48;1.38;;;18.00;61.10;;;;;;5054120;28;20175;-64
2024/03/20 12:04:40;;;;;;;1.00;0.90;;;18.00;61.00;;;;;;5054330;28;20242;-64
2024/03/20 12:07:25;;;;;;;1.10;1.00;;;18.10;61.10;;;;;;5052333;28;20336;-65
2024/03/20 12:09:50;;;;;;;1.15;1.10;;;18.10;61.20;;;;;;5054145;28;20546;-64
2024/03/20 12:12:18;;;;;;;1.38;0.95;;;18.10;61.20;;;;;;5053823;28;20183;-64
2024/03/20 12:14:44;;;;;;;0.90;0.90;;;18.00;61.20;;;;;;5052351;28;20183;-64
2024/03/20 12:17:09;;;;;;;1.17;1.10;;;18.00;61.10;;;;;;5053796;28;20194;-64
2024/03/20 12:19:35;;;;;;;1.33;1.20;;;18.00;61.20;;;;;;5052765;28;20206;-64
2024/03/20 12:22:01;;;;;;;2.92;1.38;;;18.00;61.20;;;;;;5051965;28;20541;-64
2024/03/20 12:24:27;;;;;;;1.40;1.30;;;18.00;61.20;;;;;;5052389;28;20584;-64
2024/03/20 12:26:52;;;;;;;1.02;0.90;;;18.00;61.20;;;;;;5053776;28;20175;-64
2024/03/20 12:29:18;;;;;;;1.98;1.05;;;18.00;61.20;;;;;;5052847;28;20172;-64
2024/03/20 12:31:43;;;;;;;0.93;0.93;;;18.00;61.20;;;;;;5053819;28;20175;-64
2024/03/20 12:34:09;;;;;;;2.33;1.17;;;18.00;61.20;;;;;;5053284;28;20220;-64
2024/03/20 12:36:34;;;;;;;1.45;1.15;;;18.00;61.20;;;;;;5053316;28;20212;-65
2024/03/20 12:39:00;;;;;;;1.42;1.20;;;18.00;61.20;;;;;;5053739;28;20179;-65
2024/03/20 12:41:25;;;;;;;1.10;1.10;;;18.00;61.10;;;;;;5053179;28;20300;-65